createdAt,value
2023-02-14T00:01:20.705Z,1.10
2023-02-14T00:03:49.398Z,1.00
2023-02-14T00:06:16.559Z,1.00
2023-02-14T00:08:46.441Z,1.10
2023-02-14T00:11:14.234Z,1.10
2023-02-14T00:14:01.220Z,1.10
2023-02-14T00:16:28.330Z,1.10
2023-02-14T00:19:04.012Z,1.10
2023-02-14T00:21:36.031Z,1.00
2023-02-14T00:24:09.468Z,0.90
2023-02-14T00:26:38.856Z,0.90
2023-02-14T00:29:12.863Z,1.30
2023-02-14T00:31:41.107Z,1.00
2023-02-14T00:34:10.231Z,1.00
2023-02-14T00:36:37.341Z,1.00
2023-02-14T00:39:06.316Z,1.40
2023-02-14T00:41:33.849Z,0.80
2023-02-14T00:44:00.959Z,1.40
2023-02-14T00:46:28.592Z,0.90
2023-02-14T00:48:55.967Z,0.70
2023-02-14T00:51:23.766Z,1.20
2023-02-14T00:53:51.587Z,0.70
2023-02-14T00:56:20.578Z,0.60
2023-02-14T00:58:48.008Z,0.60
2023-02-14T01:01:16.738Z,0.60
2023-02-14T01:03:43.779Z,1.10
2023-02-14T01:06:11.048Z,0.80
2023-02-14T01:08:38.295Z,0.60
2023-02-14T01:11:16.216Z,1.10
2023-02-14T01:13:44.732Z,0.50
2023-02-14T01:16:17.657Z,0.90
2023-02-14T01:18:45.413Z,0.70
2023-02-14T01:21:28.656Z,0.40
2023-02-14T01:23:59.687Z,0.40
2023-02-14T01:26:28.088Z,0.40
2023-02-14T01:28:56.191Z,0.40
2023-02-14T01:31:27.547Z,0.30
2023-02-14T01:33:55.709Z,0.30
2023-02-14T01:36:25.368Z,0.20
2023-02-14T01:38:56.245Z,0.60
2023-02-14T01:41:24.690Z,0.20
2023-02-14T01:44:01.313Z,0.40
2023-02-14T01:46:32.679Z,0.20
2023-02-14T01:49:20.823Z,0.30
2023-02-14T01:51:54.327Z,0.30
2023-02-14T01:54:25.727Z,0.30
2023-02-14T01:57:01.577Z,0.20
2023-02-14T01:59:37.321Z,0.10
2023-02-14T02:02:05.977Z,0.10
2023-02-14T02:04:38.360Z,0.10
2023-02-14T02:07:15.364Z,0.10
2023-02-14T02:09:55.528Z,0.30
2023-02-14T02:12:24.033Z,0.30
2023-02-14T02:14:54.910Z,0.00
2023-02-14T02:18:11.704Z,0.10
2023-02-14T02:21:08.838Z,0.00
2023-02-14T02:23:56.569Z,-0.10
2023-02-14T02:27:08.622Z,-0.10
2023-02-14T02:30:21.238Z,-0.10
2023-02-14T02:33:00.203Z,-0.10
2023-02-14T02:35:42.161Z,-0.10
2023-02-14T02:38:26.323Z,-0.20
2023-02-14T02:41:04.552Z,-0.30
2023-02-14T02:44:15.999Z,-0.30
2023-02-14T02:47:11.856Z,-0.30
2023-02-14T02:50:27.350Z,-0.20
2023-02-14T02:53:07.019Z,-0.20
2023-02-14T02:56:12.941Z,-0.30
2023-02-14T02:58:45.897Z,-0.30
2023-02-14T03:01:19.833Z,-0.40
2023-02-14T03:04:08.983Z,0.40
2023-02-14T03:06:36.164Z,-0.40
2023-02-14T03:09:33.432Z,-0.40
2023-02-14T03:12:33.845Z,-0.40
2023-02-14T03:15:29.509Z,-0.40
2023-02-14T03:18:27.046Z,-0.50
2023-02-14T03:21:26.184Z,-0.60
2023-02-14T03:24:11.648Z,-0.60
2023-02-14T03:27:12.288Z,0.00
2023-02-14T03:30:07.866Z,-0.60
2023-02-14T03:33:26.489Z,-0.60
2023-02-14T03:36:25.994Z,-0.60
2023-02-14T03:39:15.119Z,-0.50
2023-02-14T03:41:54.682Z,-0.50
2023-02-14T03:44:25.878Z,-0.50
2023-02-14T03:47:08.429Z,0.30
2023-02-14T03:49:43.428Z,-0.50
2023-02-14T03:52:12.862Z,-0.30
2023-02-14T03:54:40.510Z,-0.50
2023-02-14T03:57:19.469Z,-0.50
2023-02-14T03:59:46.650Z,-0.40
2023-02-14T04:02:35.216Z,-0.40
2023-02-14T04:05:09.881Z,0.10
2023-02-14T04:07:53.707Z,-0.40
2023-02-14T04:10:21.871Z,-0.50
2023-02-14T04:12:49.780Z,-0.30
2023-02-14T04:15:18.018Z,0.40
2023-02-14T04:18:03.697Z,-0.40
2023-02-14T04:20:30.918Z,-0.40
2023-02-14T04:22:57.964Z,-0.30
2023-02-14T04:25:25.093Z,-0.30
2023-02-14T04:27:52.200Z,-0.20
2023-02-14T04:30:20.950Z,0.40
2023-02-14T04:32:48.359Z,0.20
2023-02-14T04:35:16.250Z,0.20
2023-02-14T04:37:43.480Z,-0.20
2023-02-14T04:40:11.236Z,-0.20
2023-02-14T04:42:38.186Z,-0.20
2023-02-14T04:45:05.674Z,-0.20
2023-02-14T04:47:32.716Z,-0.20
2023-02-14T04:49:59.748Z,-0.20
2023-02-14T04:52:27.173Z,0.30
2023-02-14T04:54:54.245Z,-0.20
2023-02-14T04:57:21.592Z,-0.20
2023-02-14T04:59:48.515Z,-0.20
2023-02-14T05:02:15.723Z,-0.20
2023-02-14T05:04:42.837Z,0.40
2023-02-14T05:07:09.848Z,0.00
2023-02-14T05:09:36.921Z,-0.10
2023-02-14T05:12:04.091Z,-0.10
2023-02-14T05:14:31.064Z,0.40
2023-02-14T05:16:58.168Z,-0.10
2023-02-14T05:19:25.400Z,0.50
2023-02-14T05:21:52.352Z,-0.10
2023-02-14T05:24:19.397Z,-0.10
2023-02-14T05:26:46.547Z,0.00
2023-02-14T05:29:13.512Z,-0.10
2023-02-14T05:31:40.637Z,0.40
2023-02-14T05:34:07.714Z,0.30
2023-02-14T05:36:34.819Z,0.00
2023-02-14T05:39:01.957Z,0.00
2023-02-14T05:41:29.001Z,0.00
2023-02-14T05:43:56.064Z,0.00
2023-02-14T05:46:23.047Z,0.60
2023-02-14T05:48:50.037Z,0.20
2023-02-14T05:51:17.044Z,0.00
2023-02-14T05:53:44.064Z,0.10
2023-02-14T05:56:11.130Z,0.00
2023-02-14T05:58:38.123Z,0.40
2023-02-14T06:01:05.311Z,0.00
2023-02-14T06:03:32.300Z,0.00
2023-02-14T06:05:59.398Z,0.20
2023-02-14T06:08:26.415Z,0.50
2023-02-14T06:10:53.628Z,0.00
2023-02-14T06:13:20.674Z,0.60
2023-02-14T06:15:47.763Z,0.00
2023-02-14T06:18:14.818Z,0.00
2023-02-14T06:20:41.792Z,0.00
2023-02-14T06:23:08.841Z,0.80
2023-02-14T06:25:35.904Z,0.00
2023-02-14T06:28:04.272Z,0.10
2023-02-14T06:30:31.401Z,0.00
2023-02-14T06:33:02.503Z,0.10
2023-02-14T06:35:29.476Z,0.10
2023-02-14T06:37:56.452Z,0.10
2023-02-14T06:40:24.130Z,0.30
2023-02-14T06:42:51.121Z,0.20
2023-02-14T06:45:18.223Z,0.60
2023-02-14T06:47:45.999Z,0.10
2023-02-14T06:50:13.089Z,1.00
2023-02-14T06:52:42.138Z,0.90
2023-02-14T06:55:11.779Z,0.50
2023-02-14T06:57:39.338Z,0.60
2023-02-14T07:00:07.705Z,0.10
2023-02-14T07:02:34.755Z,0.10
2023-02-14T07:05:01.801Z,0.10
2023-02-14T07:07:28.760Z,0.10
2023-02-14T07:09:55.825Z,0.20
2023-02-14T07:12:22.847Z,0.10
2023-02-14T07:14:49.824Z,0.10
2023-02-14T07:17:16.783Z,0.10
2023-02-14T07:19:43.808Z,0.20
2023-02-14T07:22:10.776Z,0.10
2023-02-14T07:24:37.773Z,0.10
2023-02-14T07:27:04.815Z,0.10
2023-02-14T07:29:31.775Z,0.60
2023-02-14T07:31:58.815Z,0.20
2023-02-14T07:34:27.316Z,0.20
2023-02-14T07:36:54.382Z,0.10
2023-02-14T07:39:21.511Z,0.10
2023-02-14T07:41:48.477Z,0.20
2023-02-14T07:44:15.478Z,0.20
2023-02-14T07:46:42.522Z,0.60
2023-02-14T07:49:09.546Z,0.20
2023-02-14T07:51:36.658Z,0.20
2023-02-14T07:54:04.218Z,0.30
2023-02-14T07:56:31.308Z,0.30
2023-02-14T07:58:58.365Z,0.50
2023-02-14T08:01:25.619Z,1.00
2023-02-14T08:03:52.814Z,0.70
2023-02-14T08:06:21.188Z,0.30
2023-02-14T08:08:48.881Z,0.30
2023-02-14T08:11:36.047Z,0.30
2023-02-14T08:14:04.916Z,0.40
2023-02-14T08:16:34.371Z,1.00
2023-02-14T08:19:02.460Z,1.00
2023-02-14T08:21:29.729Z,0.50
2023-02-14T08:23:57.023Z,0.50
2023-02-14T08:26:24.764Z,1.00
2023-02-14T08:28:51.947Z,0.60
2023-02-14T08:31:36.690Z,1.30
2023-02-14T08:34:07.981Z,0.60
2023-02-14T08:36:35.650Z,0.70
2023-02-14T08:39:05.430Z,0.70
2023-02-14T08:41:33.125Z,0.60
2023-02-14T08:44:00.490Z,0.60
2023-02-14T08:46:28.105Z,0.80
2023-02-14T08:48:56.565Z,0.90
2023-02-14T08:51:25.915Z,0.70
2023-02-14T08:53:53.289Z,1.20
2023-02-14T08:56:22.744Z,0.90
2023-02-14T08:58:53.606Z,1.00
2023-02-14T09:01:21.047Z,1.00
2023-02-14T09:03:48.170Z,0.70
2023-02-14T09:06:17.535Z,1.00
2023-02-14T09:08:45.867Z,1.00
2023-02-14T09:11:21.934Z,1.10
2023-02-14T09:13:50.997Z,1.10
2023-02-14T09:16:19.530Z,1.90
2023-02-14T09:18:48.484Z,1.20
2023-02-14T09:21:20.509Z,1.20
2023-02-14T09:23:47.660Z,1.10
2023-02-14T09:26:16.527Z,1.20
2023-02-14T09:28:44.980Z,1.30
2023-02-14T09:31:16.990Z,1.30
2023-02-14T09:34:04.391Z,1.40
2023-02-14T09:36:31.425Z,1.30
2023-02-14T09:38:58.418Z,1.30
2023-02-14T09:41:31.362Z,1.70
2023-02-14T09:44:13.694Z,1.50
2023-02-14T09:46:49.037Z,1.50
2023-02-14T09:49:29.826Z,1.60
2023-02-14T09:51:57.643Z,1.40
2023-02-14T09:54:28.696Z,1.50
2023-02-14T09:57:39.271Z,1.50
2023-02-14T10:00:30.297Z,1.50
2023-02-14T10:03:34.636Z,1.60
2023-02-14T10:06:38.442Z,1.60
2023-02-14T10:09:30.118Z,1.60
2023-02-14T10:12:00.148Z,1.50
2023-02-14T10:14:36.616Z,1.50
2023-02-14T10:17:18.505Z,1.70
2023-02-14T10:19:52.441Z,1.70
2023-02-14T10:22:26.947Z,1.80
2023-02-14T10:25:24.057Z,1.90
2023-02-14T10:27:53.471Z,1.80
2023-02-14T10:30:23.719Z,1.70
2023-02-14T10:33:17.058Z,1.80
2023-02-14T10:35:53.648Z,1.90
2023-02-14T10:38:36.131Z,1.90
2023-02-14T10:41:27.453Z,1.80
2023-02-14T10:44:37.417Z,1.80
2023-02-14T10:47:41.963Z,1.90
2023-02-14T10:50:49.640Z,2.00
2023-02-14T10:53:47.641Z,2.00
2023-02-14T10:56:27.942Z,2.10
2023-02-14T10:58:56.717Z,2.10
2023-02-14T11:01:24.421Z,2.00
2023-02-14T11:04:08.750Z,2.10
2023-02-14T11:06:35.819Z,2.00
2023-02-14T11:09:03.536Z,2.20
2023-02-14T11:11:39.218Z,2.20
2023-02-14T11:14:32.778Z,2.20
2023-02-14T11:17:27.500Z,2.20
2023-02-14T11:20:06.519Z,2.20
2023-02-14T11:22:35.475Z,2.10
2023-02-14T11:25:19.553Z,2.20
2023-02-14T11:27:52.524Z,2.20
2023-02-14T11:30:30.455Z,2.30
2023-02-14T11:32:57.938Z,2.40
2023-02-14T11:35:33.932Z,2.30
2023-02-14T11:38:24.880Z,2.50
2023-02-14T11:40:56.491Z,2.40
2023-02-14T11:43:44.871Z,2.40
2023-02-14T11:46:20.609Z,2.40
2023-02-14T11:49:02.268Z,2.30
2023-02-14T11:51:41.920Z,2.30
2023-02-14T11:54:22.722Z,2.30
2023-02-14T11:56:57.054Z,2.40
2023-02-14T11:59:52.013Z,2.40
2023-02-14T12:02:40.213Z,2.50
2023-02-14T12:05:31.569Z,2.30
2023-02-14T12:08:05.395Z,2.40
2023-02-14T12:10:36.530Z,2.50
2023-02-14T12:13:09.400Z,2.40
2023-02-14T12:15:43.843Z,2.40
2023-02-14T12:18:34.989Z,2.50
2023-02-14T12:21:47.630Z,2.60
2023-02-14T12:24:41.610Z,2.60
2023-02-14T12:27:35.814Z,2.50
2023-02-14T12:30:22.457Z,2.50
2023-02-14T12:32:56.638Z,2.60
2023-02-14T12:36:01.122Z,2.70
2023-02-14T12:39:23.285Z,2.70
2023-02-14T12:42:11.572Z,2.60
2023-02-14T12:45:24.249Z,2.40
2023-02-14T12:48:15.115Z,2.50
2023-02-14T12:51:08.762Z,2.70
2023-02-14T12:54:08.542Z,2.70
2023-02-14T12:57:20.116Z,2.70
2023-02-14T13:00:24.584Z,2.70
2023-02-14T13:03:13.668Z,2.70
2023-02-14T13:06:06.040Z,2.80
2023-02-14T13:09:07.238Z,2.90
2023-02-14T13:11:58.779Z,2.90
2023-02-14T13:15:12.420Z,2.80
2023-02-14T13:18:00.435Z,2.80
2023-02-14T13:20:54.268Z,2.80
2023-02-14T13:23:39.912Z,2.90
2023-02-14T13:26:14.307Z,2.90
2023-02-14T13:29:00.298Z,2.90
2023-02-14T13:31:27.574Z,2.90
2023-02-14T13:34:02.583Z,2.90
2023-02-14T13:36:31.038Z,3.00
2023-02-14T13:38:59.654Z,3.10
2023-02-14T13:41:28.274Z,3.10
2023-02-14T13:44:02.595Z,3.10
2023-02-14T13:46:32.464Z,3.30
2023-02-14T13:49:20.284Z,3.30
2023-02-14T13:51:59.938Z,3.10
2023-02-14T13:54:50.899Z,3.00
2023-02-14T13:57:31.651Z,3.10
2023-02-14T14:00:17.522Z,3.30
2023-02-14T14:02:52.713Z,3.30
2023-02-14T14:05:35.548Z,3.20
2023-02-14T14:08:20.650Z,3.30
2023-02-14T14:11:00.776Z,3.40
2023-02-14T14:13:42.943Z,3.30
2023-02-14T14:16:28.587Z,3.30
2023-02-14T14:19:22.039Z,3.20
2023-02-14T14:22:03.511Z,3.30
2023-02-14T14:24:33.534Z,3.40
2023-02-14T14:27:23.343Z,3.30
2023-02-14T14:30:03.767Z,3.30
2023-02-14T14:32:38.563Z,3.40
2023-02-14T14:35:13.398Z,3.30
2023-02-14T14:37:49.257Z,3.50
2023-02-14T14:40:33.282Z,3.50
2023-02-14T14:43:13.800Z,3.30
2023-02-14T14:45:52.938Z,3.30
2023-02-14T14:48:30.449Z,3.50
2023-02-14T14:50:58.236Z,3.60
2023-02-14T14:53:44.645Z,3.60
2023-02-14T14:56:22.902Z,3.60
2023-02-14T14:58:49.980Z,3.50
2023-02-14T15:01:40.331Z,3.50
2023-02-14T15:04:12.395Z,3.50
2023-02-14T15:06:40.004Z,3.40
2023-02-14T15:09:36.887Z,3.50
2023-02-14T15:12:24.008Z,3.40
2023-02-14T15:14:54.895Z,3.30
2023-02-14T15:17:32.166Z,3.30
2023-02-14T15:20:06.031Z,3.30
2023-02-14T15:22:42.459Z,3.30
2023-02-14T15:25:16.311Z,3.70
2023-02-14T15:27:44.174Z,3.30
2023-02-14T15:30:23.214Z,3.30
2023-02-14T15:32:51.574Z,3.30
2023-02-14T15:35:30.662Z,3.30
2023-02-14T15:38:01.911Z,3.30
2023-02-14T15:40:32.514Z,3.20
2023-02-14T15:43:32.319Z,3.10
2023-02-14T15:46:28.327Z,3.10
2023-02-14T15:48:58.732Z,3.20
2023-02-14T15:51:32.733Z,3.10
2023-02-14T15:54:23.372Z,3.10
2023-02-14T15:56:52.956Z,3.00
2023-02-14T15:59:26.253Z,3.00
2023-02-14T16:02:21.033Z,3.00
2023-02-14T16:04:48.095Z,2.90
2023-02-14T16:07:28.268Z,3.00
2023-02-14T16:10:24.523Z,3.00
2023-02-14T16:13:14.798Z,2.90
2023-02-14T16:15:59.805Z,2.90
2023-02-14T16:18:50.521Z,2.90
2023-02-14T16:21:31.243Z,2.90
2023-02-14T16:24:07.355Z,2.80
2023-02-14T16:26:45.442Z,2.80
2023-02-14T16:29:16.160Z,2.80
2023-02-14T16:32:16.127Z,2.70
2023-02-14T16:34:45.606Z,2.70
2023-02-14T16:37:31.935Z,2.60
2023-02-14T16:40:01.709Z,2.50
2023-02-14T16:42:28.858Z,2.50
2023-02-14T16:44:55.842Z,2.50
2023-02-14T16:47:22.936Z,2.50
2023-02-14T16:49:52.987Z,2.60
2023-02-14T16:52:23.923Z,2.50
2023-02-14T16:54:51.509Z,2.50
2023-02-14T16:57:28.086Z,2.40
2023-02-14T16:59:57.064Z,2.40
2023-02-14T17:02:28.342Z,2.00
2023-02-14T17:04:55.643Z,2.40
2023-02-14T17:07:22.899Z,2.30
2023-02-14T17:09:56.515Z,2.30
2023-02-14T17:12:35.678Z,2.50
2023-02-14T17:15:09.528Z,2.40
2023-02-14T17:17:37.611Z,2.30
2023-02-14T17:20:08.334Z,2.30
2023-02-14T17:22:37.274Z,2.30
2023-02-14T17:25:06.228Z,2.40
2023-02-14T17:27:33.214Z,2.20
2023-02-14T17:30:00.343Z,2.10
2023-02-14T17:32:27.697Z,2.20
2023-02-14T17:34:54.871Z,2.20
2023-02-14T17:37:21.995Z,2.20
2023-02-14T17:39:49.023Z,2.30
2023-02-14T17:42:16.045Z,2.30
2023-02-14T17:44:43.081Z,2.30
2023-02-14T17:47:10.385Z,2.30
2023-02-14T17:49:38.099Z,2.20
2023-02-14T17:52:05.398Z,2.20
2023-02-14T17:54:37.532Z,2.20
2023-02-14T17:57:04.878Z,2.20
2023-02-14T17:59:33.080Z,2.20
2023-02-14T18:02:00.339Z,2.10
2023-02-14T18:04:30.089Z,2.30
2023-02-14T18:06:57.094Z,2.00
2023-02-14T18:09:25.817Z,2.10
2023-02-14T18:11:52.887Z,2.10
2023-02-14T18:14:19.930Z,2.10
2023-02-14T18:16:47.100Z,2.20
2023-02-14T18:19:16.109Z,2.10
2023-02-14T18:21:45.236Z,2.10
2023-02-14T18:24:13.234Z,2.00
2023-02-14T18:26:42.382Z,2.00
2023-02-14T18:29:10.865Z,2.20
2023-02-14T18:31:40.481Z,2.20
2023-02-14T18:34:08.230Z,2.10
2023-02-14T18:36:40.504Z,2.10
2023-02-14T18:39:09.337Z,2.10
2023-02-14T18:41:36.872Z,2.00
2023-02-14T18:44:04.457Z,2.10
2023-02-14T18:46:35.632Z,1.90
2023-02-14T18:49:06.090Z,1.90
2023-02-14T18:51:37.610Z,2.10
2023-02-14T18:54:05.642Z,2.00
2023-02-14T18:56:37.393Z,1.90
2023-02-14T18:59:08.197Z,1.90
2023-02-14T19:01:39.863Z,1.90
2023-02-14T19:04:12.211Z,1.90
2023-02-14T19:06:41.444Z,1.80
2023-02-14T19:09:12.556Z,1.90
2023-02-14T19:11:40.060Z,1.80
2023-02-14T19:14:10.341Z,1.90
2023-02-14T19:16:51.259Z,1.90
2023-02-14T19:19:18.825Z,1.80
2023-02-14T19:21:54.837Z,1.80
2023-02-14T19:24:24.194Z,1.80
2023-02-14T19:26:51.891Z,1.80
2023-02-14T19:29:21.018Z,1.90
2023-02-14T19:32:05.258Z,1.80
2023-02-14T19:34:46.467Z,1.90
2023-02-14T19:37:14.040Z,1.80
2023-02-14T19:39:41.062Z,1.80
2023-02-14T19:42:08.162Z,2.30
2023-02-14T19:44:42.445Z,1.80
2023-02-14T19:47:25.286Z,1.80
2023-02-14T19:49:55.901Z,1.80
2023-02-14T19:52:26.870Z,1.70
2023-02-14T19:54:56.097Z,1.80
2023-02-14T19:57:23.565Z,1.80
2023-02-14T19:59:50.719Z,1.70
2023-02-14T20:02:27.211Z,1.70
2023-02-14T20:04:58.858Z,1.70
2023-02-14T20:07:25.800Z,1.80
2023-02-14T20:09:52.859Z,1.70
2023-02-14T20:12:19.949Z,1.70
2023-02-14T20:14:51.664Z,1.70
2023-02-14T20:17:19.453Z,1.70
2023-02-14T20:19:46.627Z,1.80
2023-02-14T20:22:13.662Z,1.70
2023-02-14T20:24:40.643Z,1.70
2023-02-14T20:27:08.191Z,1.60
2023-02-14T20:29:36.468Z,1.70
2023-02-14T20:32:05.373Z,1.70
2023-02-14T20:34:32.464Z,1.70
2023-02-14T20:37:00.276Z,1.70
2023-02-14T20:39:33.449Z,1.90
2023-02-14T20:42:01.208Z,1.60
2023-02-14T20:44:28.892Z,1.70
2023-02-14T20:46:56.749Z,1.70
2023-02-14T20:49:26.386Z,1.70
2023-02-14T20:51:54.338Z,1.70
2023-02-14T20:54:24.801Z,1.70
2023-02-14T20:56:52.044Z,1.80
2023-02-14T20:59:26.407Z,1.60
2023-02-14T21:01:55.720Z,1.70
2023-02-14T21:04:23.371Z,1.60
2023-02-14T21:06:50.504Z,1.80
2023-02-14T21:09:18.740Z,1.60
2023-02-14T21:11:45.786Z,1.60
2023-02-14T21:14:13.339Z,1.60
2023-02-14T21:16:40.956Z,1.60
2023-02-14T21:19:07.951Z,1.50
2023-02-14T21:21:37.444Z,1.80
2023-02-14T21:24:14.523Z,1.60
2023-02-14T21:26:42.217Z,1.60
2023-02-14T21:29:09.910Z,1.60
2023-02-14T21:31:37.603Z,1.70
2023-02-14T21:34:04.919Z,1.70
2023-02-14T21:36:37.443Z,1.90
2023-02-14T21:39:06.456Z,1.70
2023-02-14T21:41:36.069Z,1.60
2023-02-14T21:44:04.114Z,1.60
2023-02-14T21:46:35.996Z,1.80
2023-02-14T21:49:24.292Z,1.80
2023-02-14T21:51:51.561Z,1.60
2023-02-14T21:54:18.709Z,1.70
2023-02-14T21:56:46.189Z,1.70
2023-02-14T21:59:13.318Z,1.80
2023-02-14T22:01:42.805Z,1.80
2023-02-14T22:04:12.279Z,1.70
2023-02-14T22:06:42.088Z,1.70
2023-02-14T22:09:11.058Z,1.70
2023-02-14T22:11:38.525Z,2.30
2023-02-14T22:14:05.777Z,1.60
2023-02-14T22:16:33.023Z,1.60
2023-02-14T22:19:00.028Z,1.60
2023-02-14T22:21:27.672Z,1.50
2023-02-14T22:23:55.901Z,1.90
2023-02-14T22:26:30.275Z,1.60
2023-02-14T22:28:59.548Z,1.70
2023-02-14T22:31:30.259Z,1.60
2023-02-14T22:33:57.300Z,1.60
2023-02-14T22:36:24.884Z,1.60
2023-02-14T22:38:52.032Z,1.60
2023-02-14T22:41:22.945Z,1.30
2023-02-14T22:43:50.966Z,1.60
2023-02-14T22:46:22.328Z,1.60
2023-02-14T22:48:51.409Z,1.70
2023-02-14T22:51:34.051Z,2.00
2023-02-14T22:54:08.135Z,1.70
2023-02-14T22:56:39.018Z,1.50
2023-02-14T22:59:14.480Z,1.60
2023-02-14T23:01:41.625Z,1.60
2023-02-14T23:04:08.994Z,1.60
2023-02-14T23:06:37.290Z,1.70
2023-02-14T23:09:07.274Z,1.70
2023-02-14T23:11:37.407Z,1.70
2023-02-14T23:14:24.532Z,1.70
2023-02-14T23:17:10.609Z,1.70
2023-02-14T23:19:56.919Z,1.70
2023-02-14T23:22:28.552Z,1.80
2023-02-14T23:24:59.194Z,1.70
2023-02-14T23:27:41.617Z,1.60
2023-02-14T23:30:13.699Z,1.60
2023-02-14T23:32:40.854Z,1.60
2023-02-14T23:35:08.791Z,2.10
2023-02-14T23:37:36.770Z,1.70
2023-02-14T23:40:07.853Z,1.60
2023-02-14T23:42:35.015Z,1.60
2023-02-14T23:45:20.833Z,1.70
2023-02-14T23:47:47.892Z,2.50
2023-02-14T23:50:15.754Z,1.70
2023-02-14T23:52:44.671Z,2.10
2023-02-14T23:55:12.343Z,1.80
2023-02-14T23:57:39.645Z,1.70
